EVA757 ZSHC-RCTP
Flight info
| Callsign | EVA757 |
|---|---|
| Flight time | N/A |
| Altitude | 38100 |
| Route | UGAG8D/25 UGAGO A470 BZ/K0907S1190 R596 SULEM/N0491F380 R596 BERBA B576 BAKER BAKER1A |
| Aircraft | A359/H-SDE2E3GHIJ3J4J5LM1ORWXY/LB1D1 |
Departure
| Time | 2026-05-04 15:59 |
|---|---|
| Airport | Hangzhou Xiaoshan International Airport (ZSHC) |
Arrival
| Time | N/A |
|---|---|
| Airport | Taiwan Taoyuan International Airport (RCTP) |
| Time | Latitude | Longitude | Altitude | Speed | Heading |
|---|---|---|---|---|---|
| 2026-05-04 15:21 | 30.24662 | 120.43639 | 61 ft | 0 kts | 331° |
| 2026-05-04 15:44 | 30.24654 | 120.43644 | 52 ft | 4 kts | 327° |
| 2026-05-04 15:45 | 30.24635 | 120.43664 | 52 ft | 4 kts | 300° |
| 2026-05-04 15:45 | 30.24626 | 120.43692 | 52 ft | 4 kts | 267° |
| 2026-05-04 15:45 | 30.24629 | 120.43711 | 56 ft | 0 kts | 246° |
| 2026-05-04 15:50 | 30.24625 | 120.43702 | 56 ft | 6 kts | 246° |
| 2026-05-04 15:50 | 30.24599 | 120.43635 | 52 ft | 10 kts | 244° |
| 2026-05-04 15:50 | 30.24553 | 120.43577 | 53 ft | 9 kts | 208° |
| 2026-05-04 15:51 | 30.24537 | 120.43538 | 52 ft | 5 kts | 256° |
| 2026-05-04 15:51 | 30.24519 | 120.43502 | 56 ft | 5 kts | 223° |
| 2026-05-04 15:51 | 30.24485 | 120.43490 | 54 ft | 6 kts | 181° |
| 2026-05-04 15:51 | 30.24444 | 120.43500 | 55 ft | 7 kts | 163° |
| 2026-05-04 15:52 | 30.24397 | 120.43524 | 55 ft | 8 kts | 153° |
| 2026-05-04 15:52 | 30.24344 | 120.43556 | 52 ft | 9 kts | 153° |
| 2026-05-04 15:52 | 30.24282 | 120.43593 | 52 ft | 11 kts | 153° |
| 2026-05-04 15:52 | 30.24210 | 120.43635 | 54 ft | 14 kts | 153° |
| 2026-05-04 15:53 | 30.24102 | 120.43699 | 56 ft | 20 kts | 153° |
| 2026-05-04 15:53 | 30.23978 | 120.43773 | 52 ft | 20 kts | 149° |
| 2026-05-04 15:53 | 30.23854 | 120.43848 | 52 ft | 16 kts | 153° |
| 2026-05-04 15:53 | 30.23751 | 120.43906 | 54 ft | 17 kts | 153° |
| 2026-05-04 15:54 | 30.23642 | 120.43969 | 52 ft | 18 kts | 153° |
| 2026-05-04 15:54 | 30.23529 | 120.44038 | 52 ft | 19 kts | 151° |
| 2026-05-04 15:54 | 30.23452 | 120.44132 | 55 ft | 15 kts | 92° |
| 2026-05-04 15:54 | 30.23489 | 120.44225 | 54 ft | 13 kts | 61° |
| 2026-05-04 15:55 | 30.23534 | 120.44322 | 57 ft | 14 kts | 63° |
| 2026-05-04 15:55 | 30.23580 | 120.44428 | 52 ft | 15 kts | 63° |
| 2026-05-04 15:55 | 30.23630 | 120.44543 | 55 ft | 17 kts | 63° |
| 2026-05-04 15:55 | 30.23684 | 120.44667 | 52 ft | 18 kts | 63° |
| 2026-05-04 15:56 | 30.23743 | 120.44803 | 54 ft | 20 kts | 63° |
| 2026-05-04 15:56 | 30.23806 | 120.44946 | 53 ft | 18 kts | 66° |
| 2026-05-04 15:56 | 30.23805 | 120.45005 | 52 ft | 0 kts | 116° |
| 2026-05-04 15:57 | 30.23793 | 120.45021 | 51 ft | 8 kts | 131° |
| 2026-05-04 15:57 | 30.23716 | 120.45064 | 53 ft | 17 kts | 164° |
| 2026-05-04 15:57 | 30.23633 | 120.44993 | 50 ft | 16 kts | 239° |
| 2026-05-04 15:58 | 30.23577 | 120.44873 | 56 ft | 24 kts | 243° |
| 2026-05-04 15:58 | 30.23410 | 120.44494 | 52 ft | 85 kts | 243° |
| 2026-05-04 15:58 | 30.23040 | 120.43662 | 57 ft | 142 kts | 243° |
| 2026-05-04 15:58 | 30.22543 | 120.42560 | 424 ft | 156 kts | 242° |
| 2026-05-04 15:59 | 30.22132 | 120.41431 | 1164 ft | 151 kts | 248° |
| 2026-05-04 15:59 | 30.21493 | 120.40410 | 1529 ft | 166 kts | 224° |
| 2026-05-04 15:59 | 30.20612 | 120.39435 | 1770 ft | 185 kts | 223° |
| 2026-05-04 15:59 | 30.19641 | 120.38336 | 1974 ft | 208 kts | 224° |
| 2026-05-04 16:00 | 30.18580 | 120.37074 | 2180 ft | 230 kts | 226° |
| 2026-05-04 16:00 | 30.17448 | 120.35675 | 2521 ft | 245 kts | 226° |
| 2026-05-04 16:00 | 30.16275 | 120.34199 | 3088 ft | 253 kts | 227° |
| 2026-05-04 16:00 | 30.15076 | 120.32683 | 3646 ft | 258 kts | 227° |
| 2026-05-04 16:01 | 30.13863 | 120.31138 | 4095 ft | 262 kts | 227° |
| 2026-05-04 16:01 | 30.12623 | 120.29563 | 4660 ft | 268 kts | 227° |
| 2026-05-04 16:01 | 30.11359 | 120.27958 | 5212 ft | 273 kts | 228° |
| 2026-05-04 16:01 | 30.10068 | 120.26316 | 5726 ft | 279 kts | 229° |
| 2026-05-04 16:02 | 30.08758 | 120.24653 | 6359 ft | 281 kts | 229° |
| 2026-05-04 16:02 | 30.07557 | 120.22870 | 6928 ft | 281 kts | 243° |
| 2026-05-04 16:02 | 30.06364 | 120.18622 | 8226 ft | 278 kts | 257° |
| 2026-05-04 16:03 | 30.05889 | 120.16457 | 8880 ft | 279 kts | 257° |
| 2026-05-04 16:03 | 30.05411 | 120.14285 | 9539 ft | 279 kts | 257° |
| 2026-05-04 16:03 | 30.04926 | 120.12110 | 10171 ft | 281 kts | 257° |
| 2026-05-04 16:03 | 30.04430 | 120.09924 | 10708 ft | 283 kts | 257° |
| 2026-05-04 16:04 | 30.03929 | 120.07718 | 11240 ft | 286 kts | 257° |
| 2026-05-04 16:04 | 30.02915 | 120.03260 | 12384 ft | 289 kts | 257° |
| 2026-05-04 16:04 | 30.02396 | 120.01016 | 12959 ft | 291 kts | 256° |
| 2026-05-04 16:05 | 30.01634 | 119.98829 | 13439 ft | 299 kts | 246° |
| 2026-05-04 16:05 | 30.00616 | 119.96678 | 13687 ft | 312 kts | 243° |
| 2026-05-04 16:05 | 29.98349 | 119.92164 | 14132 ft | 337 kts | 243° |
| 2026-05-04 16:06 | 29.97158 | 119.89788 | 14326 ft | 348 kts | 243° |
| 2026-05-04 16:06 | 29.93819 | 119.83092 | 14770 ft | 374 kts | 243° |
| 2026-05-04 16:07 | 29.92071 | 119.79587 | 15202 ft | 379 kts | 242° |
| 2026-05-04 16:07 | 29.88102 | 119.71644 | 16452 ft | 383 kts | 242° |
| 2026-05-04 16:08 | 29.86522 | 119.69154 | 16835 ft | 389 kts | 229° |
| 2026-05-04 16:08 | 29.78889 | 119.66039 | 18175 ft | 406 kts | 187° |
| 2026-05-04 16:09 | 29.73259 | 119.65747 | 18829 ft | 410 kts | 188° |
| 2026-05-04 16:09 | 29.67552 | 119.65378 | 19477 ft | 412 kts | 188° |
| 2026-05-04 16:10 | 29.62741 | 119.65059 | 19834 ft | 413 kts | 188° |
| 2026-05-04 16:11 | 29.54053 | 119.64775 | 20391 ft | 418 kts | 187° |
| 2026-05-04 16:11 | 29.51144 | 119.64649 | 20733 ft | 418 kts | 188° |
| 2026-05-04 16:12 | 29.42426 | 119.64118 | 21596 ft | 420 kts | 189° |
| 2026-05-04 16:12 | 29.33656 | 119.63560 | 22508 ft | 421 kts | 189° |
| 2026-05-04 16:13 | 29.27821 | 119.63199 | 23022 ft | 424 kts | 189° |